Ruskin, Nebraska
Current Conditions -  °F | °C
As of 12:35 PM on Sunday 23 Nov 2014 (Local Time) from KHJH Reporting Station
Overcast Overcast  
Wind Chill: 36°   Ceiling: 4200
Heat Index: 44°   Visibility: 10mi
Dew Point: 35°   Wind: 18mph
Humidity: 70%   Direction: 340°NNW
Pressure: 29.54"   Gusts: 31mph
Location:  40.14°N, 97.87°W
Report Text: KHJH 231835Z AUTO 34016G27KT 10SM SCT022 SCT026 OVC042 07/02 A2954 RMK AO2 T00660015
Loading
Personal Weather Stations






























Interactive Weather Map New forecast layout! Learn more

10-Day Weather Forecast

Advertisements
Track Severe Weather on mobile